Time;durP1;ratioP1;P1;durP2;ratioP2;P2;SDS_P1;SDS_P2;PMS_P1;PMS_P2;Temp;Humidity;BMP_temperature;BMP_pressure;BME280_temperature;BME280_humidity;BME280_pressure;Samples;Min_cycle;Max_cycle;Signal;HPM_P1;HPM_P2
2021/09/08 00:00:05;;;;;;;15.35;7.38;;;13.20;99.90;;;;;;4987599;28;20092;-84
2021/09/08 00:02:38;;;;;;;13.48;7.38;;;13.10;99.90;;;;;;5050074;28;20403;-84
2021/09/08 00:05:08;;;;;;;12.70;7.28;;;13.10;99.90;;;;;;5029860;28;20057;-83
2021/09/08 00:07:34;;;;;;;13.23;7.93;;;13.00;99.90;;;;;;5014364;28;20029;-85
2021/09/08 00:10:00;;;;;;;13.02;8.27;;;13.10;99.90;;;;;;5004878;28;20030;-83
2021/09/08 00:12:25;;;;;;;13.40;7.90;;;13.00;99.90;;;;;;5009214;28;20034;-82
2021/09/08 00:14:51;;;;;;;13.07;7.97;;;13.00;99.90;;;;;;5020401;28;20040;-82
2021/09/08 00:17:17;;;;;;;13.32;8.48;;;13.00;99.90;;;;;;5020210;28;20033;-81
2021/09/08 00:19:43;;;;;;;18.42;8.75;;;12.90;99.90;;;;;;5004291;28;20495;-81
2021/09/08 00:22:10;;;;;;;15.57;9.10;;;12.90;99.90;;;;;;5006756;28;20395;-82
2021/09/08 00:24:35;;;;;;;14.38;8.90;;;12.80;99.90;;;;;;5003901;28;20029;-83
2021/09/08 00:27:05;;;;;;;16.63;9.27;;;12.80;99.90;;;;;;5007487;28;20526;-81
2021/09/08 00:29:32;;;;;;;15.70;8.93;;;12.80;99.90;;;;;;4989281;28;20034;-83
2021/09/08 00:32:00;;;;;;;16.27;8.63;;;12.80;99.90;;;;;;5005473;28;20052;-82
2021/09/08 00:34:25;;;;;;;14.80;8.43;;;12.80;99.90;;;;;;4992105;28;20051;-81
2021/09/08 00:36:53;;;;;;;15.32;8.90;;;12.70;99.90;;;;;;4984032;28;20061;-84
2021/09/08 00:39:19;;;;;;;13.50;8.57;;;12.80;99.90;;;;;;4999637;28;20209;-82
2021/09/08 00:41:48;;;;;;;14.07;8.80;;;12.80;99.90;;;;;;5004203;28;20028;-82
2021/09/08 00:44:15;;;;;;;14.20;7.95;;;12.70;99.90;;;;;;5016150;28;20030;-82
2021/09/08 00:46:42;;;;;;;13.25;8.18;;;12.70;99.90;;;;;;5018436;28;20072;-81
2021/09/08 00:49:10;;;;;;;14.65;8.57;;;12.70;99.90;;;;;;4985070;28;20084;-81
2021/09/08 00:51:37;;;;;;;15.00;8.77;;;12.70;99.90;;;;;;5006795;28;20029;-82
2021/09/08 00:54:12;;;;;;;14.40;8.40;;;12.70;99.90;;;;;;5019016;28;20474;-82
2021/09/08 00:56:40;;;;;;;14.77;8.48;;;12.60;99.90;;;;;;5006318;28;20072;-81
2021/09/08 00:59:08;;;;;;;15.57;9.40;;;12.70;99.90;;;;;;4997631;28;20064;-81
2021/09/08 01:01:35;;;;;;;15.25;9.32;;;12.60;99.90;;;;;;5017751;28;20087;-81
2021/09/08 01:04:01;;;;;;;14.00;9.00;;;12.60;99.90;;;;;;5001601;28;20033;-82
2021/09/08 01:06:29;;;;;;;17.02;9.10;;;12.60;99.90;;;;;;5017251;28;20026;-81
2021/09/08 01:08:58;;;;;;;14.43;9.05;;;12.60;99.90;;;;;;5015088;28;20025;-82
2021/09/08 01:11:24;;;;;;;17.00;8.82;;;12.60;99.90;;;;;;4998836;28;20030;-81
2021/09/08 01:13:50;;;;;;;13.85;8.32;;;12.60;99.90;;;;;;5002978;28;20394;-81
2021/09/08 01:16:16;;;;;;;16.13;8.82;;;12.50;99.90;;;;;;4992144;28;20521;-81
2021/09/08 01:18:46;;;;;;;13.77;8.05;;;12.50;99.90;;;;;;4999293;28;20032;-82
2021/09/08 01:21:11;;;;;;;14.73;8.65;;;12.50;99.90;;;;;;4998944;28;20029;-82
2021/09/08 01:23:37;;;;;;;12.75;7.88;;;12.50;99.90;;;;;;5000374;28;20029;-82
2021/09/08 01:26:03;;;;;;;17.50;9.32;;;12.50;99.90;;;;;;5020578;28;20033;-81
2021/09/08 01:28:30;;;;;;;16.10;9.30;;;12.50;99.90;;;;;;4996241;28;20033;-81
2021/09/08 01:30:56;;;;;;;16.75;9.68;;;12.50;99.90;;;;;;5019386;28;20029;-81
2021/09/08 01:33:22;;;;;;;12.82;8.20;;;12.40;99.90;;;;;;5020769;22;20515;-80
2021/09/08 01:35:48;;;;;;;15.02;8.77;;;12.40;99.90;;;;;;4994082;28;20036;-80
2021/09/08 01:38:15;;;;;;;13.55;8.32;;;12.40;99.90;;;;;;4984835;28;20034;-80
2021/09/08 01:40:41;;;;;;;17.98;9.73;;;12.40;99.90;;;;;;4984888;28;20038;-80
2021/09/08 01:43:06;;;;;;;17.65;9.95;;;12.40;99.90;;;;;;5001357;28;20094;-81
2021/09/08 01:45:32;;;;;;;16.13;9.55;;;12.30;99.90;;;;;;4967313;28;20029;-80
2021/09/08 01:47:58;;;;;;;18.52;10.45;;;12.40;99.90;;;;;;4986674;28;20029;-81
2021/09/08 01:50:24;;;;;;;15.80;9.38;;;12.30;99.90;;;;;;4970033;28;20112;-81
2021/09/08 01:52:51;;;;;;;14.70;8.32;;;12.30;99.90;;;;;;4969516;28;20037;-81
2021/09/08 01:55:17;;;;;;;17.05;9.50;;;12.30;99.90;;;;;;4983845;28;20112;-81
2021/09/08 01:57:43;;;;;;;18.17;10.15;;;12.30;99.90;;;;;;5006360;28;20024;-81
2021/09/08 02:00:11;;;;;;;14.93;9.20;;;12.30;99.90;;;;;;4986346;28;20038;-80
2021/09/08 02:02:40;;;;;;;15.02;9.48;;;12.20;99.90;;;;;;5002765;28;20026;-80
2021/09/08 02:05:07;;;;;;;17.67;10.20;;;12.20;99.90;;;;;;5014521;28;20076;-81
2021/09/08 02:07:33;;;;;;;18.02;10.63;;;12.20;99.90;;;;;;5003326;28;20068;-81
2021/09/08 02:09:59;;;;;;;16.67;10.50;;;12.20;99.90;;;;;;5003023;28;20034;-80
2021/09/08 02:12:24;;;;;;;17.67;9.68;;;12.20;99.90;;;;;;4993821;28;20037;-80
2021/09/08 02:14:50;;;;;;;15.75;9.57;;;12.20;99.90;;;;;;4997432;28;20516;-80
2021/09/08 02:17:16;;;;;;;16.23;9.48;;;12.20;99.90;;;;;;4998680;28;20504;-79
2021/09/08 02:19:41;;;;;;;16.13;9.05;;;12.10;99.90;;;;;;4985418;28;20038;-80
2021/09/08 02:22:07;;;;;;;14.38;8.90;;;12.20;99.90;;;;;;4999932;28;20094;-80
2021/09/08 02:24:33;;;;;;;14.48;9.32;;;12.10;99.90;;;;;;4996713;28;20377;-81
2021/09/08 02:26:59;;;;;;;16.52;9.20;;;12.10;99.90;;;;;;5000231;28;20077;-80
2021/09/08 02:29:24;;;;;;;14.52;8.80;;;12.10;99.90;;;;;;4995350;28;20080;-80
2021/09/08 02:31:50;;;;;;;15.75;9.10;;;12.10;99.90;;;;;;5017236;28;20046;-80
2021/09/08 02:34:16;;;;;;;15.80;9.45;;;12.10;99.90;;;;;;5016168;28;20045;-80
2021/09/08 02:36:41;;;;;;;19.00;10.43;;;12.10;99.90;;;;;;4992406;28;20092;-81
2021/09/08 02:39:07;;;;;;;17.00;10.18;;;12.10;99.90;;;;;;5014867;28;20026;-80
2021/09/08 02:41:34;;;;;;;16.90;8.68;;;12.10;99.90;;;;;;5002878;28;20069;-80
2021/09/08 02:44:00;;;;;;;15.98;9.65;;;12.00;99.90;;;;;;4995076;28;20097;-81
2021/09/08 02:46:25;;;;;;;16.05;9.63;;;12.00;99.90;;;;;;4985053;28;20069;-80
2021/09/08 02:48:51;;;;;;;13.60;8.85;;;12.00;99.90;;;;;;5012335;28;20030;-80
2021/09/08 02:51:17;;;;;;;14.20;7.68;;;12.00;99.90;;;;;;4997931;28;20921;-81
2021/09/08 02:53:43;;;;;;;11.73;7.38;;;12.00;99.90;;;;;;5014920;28;20030;-81
2021/09/08 02:56:09;;;;;;;12.63;7.57;;;12.00;99.90;;;;;;5008621;28;20065;-80
2021/09/08 02:58:35;;;;;;;15.80;8.73;;;12.00;99.90;;;;;;5002964;28;20026;-80
2021/09/08 03:01:01;;;;;;;14.80;8.70;;;11.90;99.90;;;;;;4996457;28;20029;-80
2021/09/08 03:03:27;;;;;;;13.80;8.75;;;11.90;99.90;;;;;;5003551;28;20030;-81
2021/09/08 03:05:54;;;;;;;12.77;8.18;;;11.90;99.90;;;;;;4990695;28;20040;-80
2021/09/08 03:08:20;;;;;;;15.80;9.10;;;11.90;99.90;;;;;;5001143;28;20048;-81
2021/09/08 03:10:47;;;;;;;15.88;8.85;;;11.90;99.90;;;;;;4983297;28;20030;-81
2021/09/08 03:13:17;;;;;;;18.50;9.25;;;11.90;99.90;;;;;;5018510;28;20105;-79
2021/09/08 03:15:43;;;;;;;16.45;8.55;;;11.90;99.90;;;;;;4997625;28;20033;-80
2021/09/08 03:18:09;;;;;;;16.30;9.70;;;11.80;99.90;;;;;;5003292;28;20034;-81
2021/09/08 03:20:34;;;;;;;15.77;9.52;;;11.80;99.90;;;;;;5005987;28;20076;-80
2021/09/08 03:23:01;;;;;;;17.38;8.88;;;11.80;99.90;;;;;;5027869;28;20677;-80
2021/09/08 03:25:28;;;;;;;16.27;9.30;;;11.80;99.90;;;;;;5000160;28;20061;-79
2021/09/08 03:27:54;;;;;;;14.63;8.75;;;11.80;99.90;;;;;;4983092;28;20030;-81
2021/09/08 03:30:19;;;;;;;16.00;9.77;;;11.80;99.90;;;;;;5014943;28;20050;-80
2021/09/08 03:32:45;;;;;;;17.20;9.82;;;11.80;99.90;;;;;;5015336;28;20034;-78
2021/09/08 03:35:11;;;;;;;15.13;9.48;;;11.80;99.90;;;;;;4979307;28;20046;-79
2021/09/08 03:37:37;;;;;;;16.15;9.45;;;11.80;99.90;;;;;;5015494;28;20488;-80
2021/09/08 03:40:04;;;;;;;16.42;9.68;;;11.70;99.90;;;;;;4999056;28;20034;-79
2021/09/08 03:42:30;;;;;;;16.05;10.02;;;11.70;99.90;;;;;;4985719;28;20125;-80
2021/09/08 03:44:56;;;;;;;17.55;9.15;;;11.80;99.90;;;;;;4981005;28;20061;-81
2021/09/08 03:47:21;;;;;;;14.55;9.45;;;11.70;99.90;;;;;;4994587;28;20085;-80
2021/09/08 03:49:47;;;;;;;17.27;9.75;;;11.70;99.90;;;;;;5013889;28;20065;-80
2021/09/08 03:52:13;;;;;;;15.40;8.75;;;11.70;99.90;;;;;;5001519;28;20072;-79
2021/09/08 03:54:39;;;;;;;15.73;9.15;;;11.70;99.90;;;;;;5003668;28;20038;-80
2021/09/08 03:57:06;;;;;;;17.08;9.23;;;11.70;99.90;;;;;;4998324;28;20034;-80
2021/09/08 03:59:32;;;;;;;13.23;8.48;;;11.70;99.90;;;;;;5018689;28;20030;-79
2021/09/08 04:01:58;;;;;;;16.38;9.68;;;11.60;99.90;;;;;;4999652;28;20400;-80
2021/09/08 04:04:23;;;;;;;16.95;8.95;;;11.60;99.90;;;;;;4986452;28;20041;-80
2021/09/08 04:06:51;;;;;;;14.82;8.93;;;11.60;99.90;;;;;;5014754;28;20037;-80
2021/09/08 04:09:16;;;;;;;16.45;9.18;;;11.60;99.90;;;;;;5000780;28;20066;-80
2021/09/08 04:11:43;;;;;;;13.95;9.50;;;11.50;99.90;;;;;;5007199;28;20033;-79
2021/09/08 04:14:09;;;;;;;14.63;8.88;;;11.50;99.90;;;;;;4980042;28;20046;-81
2021/09/08 04:16:35;;;;;;;15.43;8.85;;;11.50;99.90;;;;;;4981865;28;20026;-79
2021/09/08 04:19:01;;;;;;;15.27;9.77;;;11.50;99.90;;;;;;5000045;28;20038;-80
2021/09/08 04:21:27;;;;;;;18.55;10.50;;;11.50;99.90;;;;;;5018713;28;20409;-80
2021/09/08 04:23:53;;;;;;;16.42;10.13;;;11.50;99.90;;;;;;4980405;28;20381;-80
2021/09/08 04:26:18;;;;;;;18.85;10.13;;;11.50;99.90;;;;;;4990144;28;20037;-79
2021/09/08 04:28:44;;;;;;;18.27;10.18;;;11.40;99.90;;;;;;4983013;28;20034;-80
2021/09/08 04:31:10;;;;;;;17.27;10.63;;;11.40;99.90;;;;;;5002072;28;20096;-80
2021/09/08 04:33:36;;;;;;;17.67;9.90;;;11.40;99.90;;;;;;5012431;28;20026;-81
2021/09/08 04:36:01;;;;;;;17.05;9.65;;;11.40;99.90;;;;;;4985703;28;20038;-80
2021/09/08 04:38:28;;;;;;;16.98;10.10;;;11.40;99.90;;;;;;5008620;28;20404;-81
2021/09/08 04:40:54;;;;;;;18.48;9.88;;;11.40;99.90;;;;;;5020578;28;20033;-81
2021/09/08 04:43:20;;;;;;;16.27;9.43;;;11.40;99.90;;;;;;5032704;28;20052;-81
2021/09/08 04:45:46;;;;;;;19.25;11.02;;;11.40;99.90;;;;;;5011570;28;20138;-82
2021/09/08 04:48:12;;;;;;;16.77;10.27;;;11.40;99.90;;;;;;5005702;28;20050;-80
2021/09/08 04:50:38;;;;;;;17.75;10.45;;;11.40;99.90;;;;;;4998880;28;20033;-81
2021/09/08 04:53:03;;;;;;;17.17;10.18;;;11.40;99.90;;;;;;5005490;28;20420;-81
2021/09/08 04:55:29;;;;;;;17.85;10.63;;;11.40;99.90;;;;;;4970924;28;20026;-80
2021/09/08 04:57:55;;;;;;;18.63;10.50;;;11.40;99.90;;;;;;5017951;28;20029;-80
2021/09/08 05:00:21;;;;;;;18.27;10.55;;;11.40;99.90;;;;;;5015902;28;20048;-80
2021/09/08 05:02:46;;;;;;;17.75;10.38;;;11.40;99.90;;;;;;5026984;28;20026;-78
2021/09/08 05:05:12;;;;;;;19.05;10.82;;;11.40;99.90;;;;;;5020328;28;20057;-80
2021/09/08 05:07:38;;;;;;;19.83;11.25;;;11.40;99.90;;;;;;5020071;28;20026;-81
2021/09/08 05:10:04;;;;;;;18.15;10.02;;;11.40;99.90;;;;;;5010707;28;20035;-80
2021/09/08 05:12:30;;;;;;;18.80;10.98;;;11.40;99.90;;;;;;5013996;28;20017;-81
2021/09/08 05:14:56;;;;;;;18.25;10.32;;;11.40;99.90;;;;;;4979064;28;20118;-80
2021/09/08 05:17:21;;;;;;;18.58;11.05;;;11.40;99.90;;;;;;4991929;28;20101;-79
2021/09/08 05:19:47;;;;;;;18.25;10.57;;;11.50;99.90;;;;;;4990507;28;20303;-80
2021/09/08 05:22:13;;;;;;;21.05;11.35;;;11.50;99.90;;;;;;5002741;28;20037;-81
2021/09/08 05:24:38;;;;;;;18.50;10.02;;;11.50;99.90;;;;;;5020214;28;20056;-80
2021/09/08 05:27:04;;;;;;;19.25;10.88;;;11.60;99.90;;;;;;4967096;28;20045;-80
2021/09/08 05:29:30;;;;;;;17.45;10.15;;;11.60;99.90;;;;;;4990063;28;20041;-80
2021/09/08 05:31:55;;;;;;;19.13;10.95;;;11.70;99.90;;;;;;4991806;28;20042;-79
2021/09/08 05:34:21;;;;;;;15.45;9.10;;;11.80;99.90;;;;;;4985851;28;20065;-80
2021/09/08 05:36:47;;;;;;;13.80;8.32;;;11.80;99.90;;;;;;4992451;28;20037;-81
2021/09/08 05:39:13;;;;;;;15.68;9.48;;;11.80;99.90;;;;;;5029249;28;20034;-80
2021/09/08 05:41:39;;;;;;;19.05;9.65;;;11.90;99.90;;;;;;4971354;28;20042;-80
2021/09/08 05:44:05;;;;;;;12.75;8.05;;;12.00;99.90;;;;;;4980026;28;20036;-81
2021/09/08 05:46:31;;;;;;;16.70;9.75;;;12.00;99.90;;;;;;4995545;28;20069;-81
2021/09/08 05:48:56;;;;;;;14.60;9.35;;;12.10;99.90;;;;;;5004986;28;20191;-80
2021/09/08 05:51:22;;;;;;;18.25;10.77;;;12.30;99.90;;;;;;5023767;28;20025;-81
2021/09/08 05:53:48;;;;;;;20.50;11.60;;;12.50;99.90;;;;;;4994655;28;20382;-81
2021/09/08 05:56:13;;;;;;;21.00;11.93;;;12.70;99.90;;;;;;4987675;28;20042;-81
2021/09/08 05:58:39;;;;;;;22.30;13.07;;;12.90;99.90;;;;;;5007448;28;20062;-81
2021/09/08 06:01:05;;;;;;;18.48;11.70;;;13.20;99.90;;;;;;5008581;28;20098;-80
2021/09/08 06:03:31;;;;;;;18.95;10.48;;;13.50;99.90;;;;;;5014326;28;20034;-80
2021/09/08 06:05:56;;;;;;;19.08;11.70;;;13.70;99.90;;;;;;5015491;28;20030;-80
2021/09/08 06:08:22;;;;;;;17.60;10.68;;;14.00;99.90;;;;;;4985727;28;20037;-80
2021/09/08 06:10:48;;;;;;;18.80;10.65;;;14.30;99.90;;;;;;5006763;28;20040;-81
2021/09/08 06:13:14;;;;;;;17.95;9.95;;;14.50;99.90;;;;;;5006362;28;20022;-80
2021/09/08 06:15:41;;;;;;;18.42;11.07;;;14.80;99.90;;;;;;5004507;28;20041;-81
2021/09/08 06:18:06;;;;;;;18.05;10.70;;;15.00;99.90;;;;;;4979674;28;20098;-81
2021/09/08 06:20:33;;;;;;;18.73;10.40;;;15.20;99.90;;;;;;4992973;28;20060;-81
2021/09/08 06:22:58;;;;;;;17.42;10.43;;;15.40;99.90;;;;;;5021542;28;20021;-81
2021/09/08 06:25:24;;;;;;;16.88;10.70;;;15.70;99.90;;;;;;4982976;28;20065;-82
2021/09/08 06:27:50;;;;;;;17.42;9.52;;;15.90;99.90;;;;;;5015882;28;20053;-81
2021/09/08 06:30:16;;;;;;;17.88;10.60;;;16.10;99.90;;;;;;5011081;28;20041;-81
2021/09/08 06:32:41;;;;;;;16.50;10.30;;;16.30;99.90;;;;;;4994316;28;20031;-80
2021/09/08 06:35:07;;;;;;;17.08;10.23;;;16.50;99.90;;;;;;5014117;28;20038;-79
2021/09/08 06:37:33;;;;;;;17.42;9.85;;;16.70;99.90;;;;;;5017166;28;20034;-78
2021/09/08 06:39:59;;;;;;;18.80;10.40;;;16.90;99.90;;;;;;5016029;28;20035;-79
2021/09/08 06:42:25;;;;;;;16.77;9.93;;;17.10;99.90;;;;;;5016570;28;20034;-81
2021/09/08 06:44:53;;;;;;;17.50;10.50;;;17.30;99.90;;;;;;5000218;28;20078;-79
2021/09/08 06:47:20;;;;;;;14.27;9.10;;;17.40;99.90;;;;;;5014501;28;20040;-81
2021/09/08 06:49:47;;;;;;;17.20;9.48;;;17.60;99.90;;;;;;5004095;28;20057;-80
2021/09/08 06:52:12;;;;;;;16.80;10.07;;;17.80;99.90;;;;;;5026827;28;20034;-81
2021/09/08 06:54:38;;;;;;;15.32;10.02;;;18.00;99.90;;;;;;4983414;28;20074;-78
2021/09/08 06:57:04;;;;;;;16.63;9.40;;;18.10;99.90;;;;;;4994505;28;20351;-81
2021/09/08 06:59:29;;;;;;;15.23;8.80;;;18.30;99.90;;;;;;5005181;28;20026;-81
2021/09/08 07:01:55;;;;;;;14.00;8.77;;;18.40;99.90;;;;;;5013105;28;20098;-81
2021/09/08 07:04:21;;;;;;;14.50;9.52;;;18.60;99.90;;;;;;4993033;28;20030;-82
2021/09/08 07:06:46;;;;;;;16.88;10.25;;;18.70;99.90;;;;;;5025401;28;20033;-80
2021/09/08 07:09:12;;;;;;;13.15;9.05;;;19.10;99.90;;;;;;4984706;28;20091;-79
2021/09/08 07:11:38;;;;;;;17.13;9.25;;;19.40;99.90;;;;;;5016588;28;20042;-80
2021/09/08 07:14:04;;;;;;;15.73;9.10;;;19.60;99.90;;;;;;4998394;28;20030;-81
2021/09/08 07:16:29;;;;;;;15.30;9.40;;;19.80;99.90;;;;;;5002265;28;20036;-80
2021/09/08 07:18:55;;;;;;;15.48;9.38;;;19.90;99.90;;;;;;4999592;28;20038;-81
2021/09/08 07:21:21;;;;;;;14.55;9.27;;;19.90;99.90;;;;;;5031587;28;20048;-80
2021/09/08 07:23:47;;;;;;;15.95;9.93;;;20.10;99.90;;;;;;4991251;28;20036;-79
2021/09/08 07:26:12;;;;;;;13.82;9.50;;;20.10;99.90;;;;;;5016282;28;20030;-81
2021/09/08 07:28:38;;;;;;;19.10;9.18;;;20.20;99.90;;;;;;5002674;28;20443;-79
2021/09/08 07:31:04;;;;;;;16.20;10.45;;;20.40;99.90;;;;;;5013094;28;20045;-80
2021/09/08 07:33:30;;;;;;;13.88;9.43;;;20.40;99.90;;;;;;4992608;28;20443;-81
2021/09/08 07:35:56;;;;;;;14.88;9.10;;;20.30;99.90;;;;;;4982001;28;20049;-79
2021/09/08 07:38:22;;;;;;;15.52;9.75;;;20.40;99.90;;;;;;4992713;28;20037;-79
2021/09/08 07:40:48;;;;;;;12.15;8.15;;;20.20;99.90;;;;;;4964377;28;20038;-79
2021/09/08 13:28:19;;;;;;;6.28;4.30;;;24.00;70.60;;;;;;6195177;22;19939;-85
2021/09/08 13:30:45;;;;;;;7.63;4.70;;;23.90;69.50;;;;;;5007832;28;20483;-83
2021/09/08 13:33:11;;;;;;;5.07;3.80;;;23.90;71.40;;;;;;5026800;28;20506;-83
2021/09/08 13:35:36;;;;;;;6.63;4.18;;;23.80;68.90;;;;;;4977971;28;20042;-83
2021/09/08 13:38:03;;;;;;;4.65;4.00;;;23.80;67.60;;;;;;4943968;28;20038;-83
2021/09/08 13:40:29;;;;;;;7.50;4.40;;;23.80;68.70;;;;;;4981637;28;20119;-83
2021/09/08 13:42:55;;;;;;;5.68;4.32;;;23.80;70.10;;;;;;4984831;28;20045;-83
2021/09/08 13:45:22;;;;;;;7.28;4.13;;;23.80;70.80;;;;;;4994245;28;20180;-83
2021/09/08 13:47:50;;;;;;;8.20;4.75;;;23.70;71.30;;;;;;4976629;28;20034;-83
2021/09/08 13:50:17;;;;;;;5.38;4.30;;;23.70;69.20;;;;;;4996087;28;20038;-83
2021/09/08 13:52:46;;;;;;;5.88;4.15;;;23.70;70.70;;;;;;4996017;28;20038;-83
2021/09/08 13:55:13;;;;;;;6.97;4.43;;;23.60;68.00;;;;;;4958010;28;20073;-83
2021/09/08 13:57:39;;;;;;;6.47;4.65;;;23.60;67.60;;;;;;4977126;28;20049;-83
2021/09/08 14:00:06;;;;;;;7.75;4.70;;;23.60;70.10;;;;;;4968906;28;20038;-83
2021/09/08 14:02:32;;;;;;;6.55;4.13;;;23.60;69.80;;;;;;4951648;28;20034;-83
2021/09/08 14:04:58;;;;;;;5.78;4.32;;;23.60;70.90;;;;;;4957955;28;20050;-83
2021/09/08 14:07:24;;;;;;;6.75;4.15;;;23.50;71.40;;;;;;4979680;28;20030;-83
2021/09/08 14:09:50;;;;;;;5.07;3.83;;;23.50;70.60;;;;;;4987156;28;20576;-83
2021/09/08 14:12:18;;;;;;;6.50;4.18;;;23.60;72.50;;;;;;4989796;28;20058;-83
2021/09/08 14:14:45;;;;;;;8.00;4.75;;;23.60;69.40;;;;;;4967247;28;20078;-83
2021/09/08 14:17:11;;;;;;;5.88;4.25;;;23.50;64.60;;;;;;4962524;28;20034;-84
2021/09/08 14:19:37;;;;;;;5.53;3.95;;;23.50;65.80;;;;;;4977904;28;20109;-84
2021/09/08 14:22:06;;;;;;;6.32;4.30;;;23.50;67.30;;;;;;5017231;28;20489;-83
2021/09/08 14:24:33;;;;;;;5.65;4.05;;;23.40;69.00;;;;;;4975812;28;20703;-83
2021/09/08 14:27:00;;;;;;;6.22;4.43;;;23.40;68.00;;;;;;5014933;28;20036;-83
2021/09/08 14:29:26;;;;;;;5.30;3.83;;;23.40;68.40;;;;;;4991681;28;20381;-83
2021/09/08 14:31:52;;;;;;;7.03;3.60;;;23.30;69.00;;;;;;4971301;28;20044;-84
2021/09/08 14:34:17;;;;;;;4.22;3.30;;;23.30;65.30;;;;;;4968968;28;20408;-83
2021/09/08 14:36:43;;;;;;;7.30;4.07;;;23.30;67.90;;;;;;4983911;28;20553;-84
2021/09/08 14:39:09;;;;;;;5.70;3.88;;;23.30;64.50;;;;;;4995097;28;20030;-84
2021/09/08 14:41:35;;;;;;;6.50;4.22;;;23.30;64.60;;;;;;4972360;28;20037;-83
2021/09/08 14:44:00;;;;;;;5.70;4.38;;;23.30;64.20;;;;;;4977074;28;20404;-83
2021/09/08 14:46:26;;;;;;;4.65;3.55;;;23.30;63.80;;;;;;4985118;28;20026;-83
2021/09/08 14:48:52;;;;;;;6.13;3.83;;;23.30;64.90;;;;;;5007056;28;20037;-83
2021/09/08 14:51:18;;;;;;;6.20;4.40;;;23.30;65.30;;;;;;4962933;28;20041;-84
2021/09/08 14:53:44;;;;;;;7.00;4.88;;;23.20;67.30;;;;;;4977252;28;20038;-85
2021/09/08 14:56:10;;;;;;;7.10;4.43;;;23.20;67.60;;;;;;4968301;28;20030;-83
2021/09/08 14:58:36;;;;;;;7.90;4.32;;;23.20;67.00;;;;;;4985208;28;20048;-83
2021/09/08 15:01:02;;;;;;;6.30;4.55;;;23.10;68.40;;;;;;4964419;28;20559;-83
2021/09/08 15:03:27;;;;;;;5.90;4.13;;;23.20;67.30;;;;;;4962009;28;20481;-83
2021/09/08 15:05:53;;;;;;;4.80;3.70;;;23.10;68.70;;;;;;4987499;28;20083;-83
2021/09/08 15:08:19;;;;;;;4.88;3.95;;;23.10;67.40;;;;;;4973405;28;20497;-83
2021/09/08 15:10:49;;;;;;;5.78;4.20;;;23.10;69.50;;;;;;4988007;28;20040;-82
2021/09/08 15:13:15;;;;;;;4.78;3.30;;;23.10;66.10;;;;;;4977470;28;20037;-83
2021/09/08 15:15:41;;;;;;;5.80;3.85;;;23.10;67.30;;;;;;4971648;28;20036;-83
2021/09/08 15:18:08;;;;;;;5.15;4.10;;;23.00;66.90;;;;;;4978696;28;20048;-83
2021/09/08 15:20:34;;;;;;;6.97;4.13;;;22.90;70.20;;;;;;4977691;28;20173;-83
2021/09/08 15:23:00;;;;;;;5.35;4.00;;;22.90;70.10;;;;;;4978010;28;20030;-83
2021/09/08 15:25:25;;;;;;;7.35;4.40;;;22.80;67.60;;;;;;4975935;28;20442;-83
2021/09/08 15:27:52;;;;;;;5.90;4.10;;;22.80;68.10;;;;;;4959297;28;20511;-83
2021/09/08 15:30:19;;;;;;;5.15;4.00;;;22.80;67.10;;;;;;4961061;28;20073;-83
2021/09/08 15:32:45;;;;;;;7.07;4.28;;;22.80;69.10;;;;;;4984093;28;20475;-83
2021/09/08 15:35:11;;;;;;;9.18;4.13;;;22.80;67.70;;;;;;5012106;28;20037;-83
2021/09/08 15:37:37;;;;;;;8.05;4.45;;;22.70;69.20;;;;;;4956358;28;20038;-83
2021/09/08 15:40:04;;;;;;;6.38;4.13;;;22.70;67.90;;;;;;4981648;28;20427;-83
2021/09/08 15:42:30;;;;;;;4.90;3.90;;;22.70;69.00;;;;;;4996166;28;20102;-83
2021/09/08 15:44:56;;;;;;;5.97;4.00;;;22.60;69.40;;;;;;4972393;28;20046;-82
2021/09/08 15:47:21;;;;;;;5.03;3.83;;;22.60;70.70;;;;;;4976845;28;20400;-82
2021/09/08 15:49:47;;;;;;;7.60;5.20;;;22.50;70.30;;;;;;4996138;28;20034;-83
2021/09/08 15:52:13;;;;;;;4.80;3.90;;;22.50;71.80;;;;;;4975028;28;20045;-83
2021/09/08 15:54:38;;;;;;;4.95;3.67;;;22.50;72.20;;;;;;4990194;28;20632;-83
2021/09/08 15:57:05;;;;;;;6.22;4.35;;;22.40;72.50;;;;;;4993160;28;20025;-83
2021/09/08 15:59:31;;;;;;;7.32;4.30;;;22.40;72.90;;;;;;4961996;28;20500;-83
2021/09/08 16:01:57;;;;;;;5.55;4.38;;;22.40;71.50;;;;;;4960292;28;20040;-83
2021/09/08 16:04:22;;;;;;;4.75;3.78;;;22.30;71.30;;;;;;4991647;28;20029;-83
2021/09/08 16:06:48;;;;;;;7.22;4.00;;;22.30;71.20;;;;;;4974863;28;20547;-84
2021/09/08 16:09:14;;;;;;;6.55;4.00;;;22.20;71.60;;;;;;4975093;28;20373;-82
2021/09/08 16:11:42;;;;;;;6.75;4.07;;;22.30;70.40;;;;;;4979679;28;20045;-83
2021/09/08 16:14:09;;;;;;;4.75;3.70;;;22.30;70.00;;;;;;4974628;28;20128;-83
2021/09/08 16:16:38;;;;;;;7.28;3.83;;;22.20;70.10;;;;;;4962733;28;20034;-84
2021/09/08 16:19:04;;;;;;;6.53;4.35;;;22.20;71.80;;;;;;4965884;28;20037;-83
2021/09/08 16:21:30;;;;;;;6.65;3.95;;;22.20;70.00;;;;;;4987896;28;20052;-84
2021/09/08 16:23:57;;;;;;;6.90;3.97;;;22.10;69.90;;;;;;4994494;28;20477;-84
2021/09/08 16:26:23;;;;;;;11.35;3.67;;;22.10;69.50;;;;;;4977715;28;20026;-83
2021/09/08 16:28:49;;;;;;;5.50;3.67;;;22.10;70.60;;;;;;4961605;28;20041;-83
2021/09/08 16:31:14;;;;;;;5.32;4.13;;;22.00;70.40;;;;;;4978423;28;20038;-83
2021/09/08 16:33:40;;;;;;;6.38;4.13;;;22.00;72.80;;;;;;4985838;28;20044;-83
2021/09/08 16:36:06;;;;;;;7.40;4.30;;;21.90;72.00;;;;;;4986306;28;20034;-83
2021/09/08 16:38:32;;;;;;;6.45;3.67;;;21.90;71.60;;;;;;4996897;28;20124;-83
2021/09/08 16:40:57;;;;;;;5.00;3.53;;;21.80;73.10;;;;;;4989067;28;20120;-83
2021/09/08 16:46:07;;;;;;;5.28;3.60;;;21.60;71.80;;;;;;5096178;23;20067;-89
2021/09/08 16:48:34;;;;;;;4.80;3.55;;;21.50;72.50;;;;;;5045815;28;20308;-89
2021/09/08 16:51:02;;;;;;;9.07;4.00;;;21.50;72.80;;;;;;5035603;28;20029;-89
2021/09/08 16:53:28;;;;;;;6.20;4.18;;;21.40;72.10;;;;;;5012087;28;20036;-90
2021/09/08 16:55:54;;;;;;;4.88;3.58;;;21.40;71.70;;;;;;5026132;28;20506;-89
2021/09/08 16:58:20;;;;;;;5.65;3.97;;;21.40;71.90;;;;;;5024869;28;20041;-89
2021/09/08 17:00:47;;;;;;;5.65;3.55;;;21.40;72.70;;;;;;4994878;28;20041;-89
2021/09/08 17:03:12;;;;;;;5.57;4.20;;;21.30;73.50;;;;;;5018037;28;20029;-89
2021/09/08 17:05:38;;;;;;;5.25;3.63;;;21.30;73.80;;;;;;5037776;28;20109;-89
2021/09/08 17:08:04;;;;;;;4.50;3.40;;;21.20;74.20;;;;;;4986788;28;20552;-89
2021/09/08 17:10:30;;;;;;;7.03;4.30;;;21.10;74.80;;;;;;5016221;28;20021;-89
2021/09/08 17:12:55;;;;;;;4.63;3.42;;;21.00;75.40;;;;;;5019748;28;20060;-89
2021/09/08 17:15:21;;;;;;;4.93;3.60;;;20.90;76.60;;;;;;5001359;28;20102;-90
2021/09/08 17:17:52;;;;;;;5.57;3.47;;;20.70;77.90;;;;;;5018120;28;20029;-89
2021/09/08 17:20:19;;;;;;;4.88;3.53;;;20.60;77.30;;;;;;5026358;28;20037;-89
2021/09/08 17:22:46;;;;;;;6.53;3.90;;;20.50;78.20;;;;;;4992034;28;20025;-90
2021/09/08 17:25:12;;;;;;;6.28;4.15;;;20.40;78.60;;;;;;5011900;28;20398;-89
2021/09/08 17:27:38;;;;;;;6.35;3.63;;;20.30;79.20;;;;;;5002730;28;20029;-89
2021/09/08 17:30:06;;;;;;;5.15;3.65;;;20.20;80.70;;;;;;5000829;28;20629;-88
2021/09/08 17:32:33;;;;;;;6.13;3.70;;;20.10;82.00;;;;;;5018679;28;20132;-89
2021/09/08 17:35:00;;;;;;;5.50;3.90;;;20.00;81.90;;;;;;4999770;28;20490;-89
2021/09/08 17:37:26;;;;;;;5.22;3.92;;;20.00;82.50;;;;;;5002666;28;20040;-89
2021/09/08 17:40:00;;;;;;;4.97;3.63;;;19.80;83.10;;;;;;5020678;28;20033;-89
2021/09/08 17:42:40;;;;;;;5.93;3.70;;;19.70;83.80;;;;;;4993753;28;20124;-89
2021/09/08 17:45:09;;;;;;;5.57;4.13;;;19.70;85.20;;;;;;5022240;28;20536;-89
2021/09/08 17:47:35;;;;;;;5.93;4.10;;;19.50;85.40;;;;;;5020218;28;20063;-88
2021/09/08 17:50:03;;;;;;;7.82;5.00;;;19.40;86.20;;;;;;4990972;28;20033;-89
2021/09/08 17:52:29;;;;;;;6.57;4.20;;;19.30;86.50;;;;;;4994971;28;20025;-87
2021/09/08 17:54:55;;;;;;;6.55;4.55;;;19.20;87.20;;;;;;5019942;28;20040;-89
2021/09/08 17:57:22;;;;;;;6.75;4.22;;;19.10;87.90;;;;;;5033036;28;20025;-89
2021/09/08 17:59:48;;;;;;;7.82;4.18;;;19.00;89.40;;;;;;5000036;28;20033;-89
2021/09/08 18:02:13;;;;;;;7.50;4.60;;;18.90;89.20;;;;;;5036116;28;20033;-89
2021/09/08 18:04:40;;;;;;;5.60;3.85;;;18.80;90.50;;;;;;4992272;28;20057;-89
2021/09/08 18:07:06;;;;;;;6.88;4.28;;;18.70;91.00;;;;;;5002368;28;20080;-89
2021/09/08 18:09:31;;;;;;;8.20;5.60;;;18.60;91.20;;;;;;4998682;28;20029;-88
2021/09/08 18:11:57;;;;;;;9.73;4.78;;;18.50;91.50;;;;;;5003426;28;20079;-89
2021/09/08 18:14:26;;;;;;;5.80;4.00;;;18.40;91.60;;;;;;4996653;28;20034;-89
2021/09/08 18:16:53;;;;;;;8.60;4.95;;;18.30;91.80;;;;;;5001702;28;20124;-89
2021/09/08 18:19:19;;;;;;;7.03;4.63;;;18.20;92.30;;;;;;5016899;28;20030;-89